createdAt,value
2022-09-15T00:01:07.089Z,0.43
2022-09-15T00:03:34.484Z,0.70
2022-09-15T00:06:01.597Z,0.52
2022-09-15T00:08:28.659Z,0.52
2022-09-15T00:10:58.403Z,0.20
2022-09-15T00:13:25.978Z,1.15
2022-09-15T00:15:53.163Z,1.15
2022-09-15T00:18:20.624Z,2.42
2022-09-15T00:20:47.744Z,1.52
2022-09-15T00:23:15.719Z,0.50
2022-09-15T00:25:46.622Z,1.13
2022-09-15T00:28:14.544Z,0.40
2022-09-15T00:30:45.420Z,5.53
2022-09-15T00:33:13.119Z,0.22
2022-09-15T00:35:41.337Z,1.45
2022-09-15T00:38:09.025Z,0.98
2022-09-15T00:40:44.006Z,0.60
2022-09-15T00:43:11.984Z,0.60
2022-09-15T00:45:39.238Z,0.47
2022-09-15T00:48:07.175Z,0.57
2022-09-15T00:50:35.239Z,0.47
2022-09-15T00:53:04.597Z,0.40
2022-09-15T00:55:37.292Z,1.17
2022-09-15T00:58:06.767Z,0.47
2022-09-15T01:00:34.218Z,0.73
2022-09-15T01:03:01.441Z,2.63
2022-09-15T01:05:31.593Z,3.80
2022-09-15T01:08:01.000Z,2.47
2022-09-15T01:10:29.240Z,1.75
2022-09-15T01:12:58.359Z,0.30
2022-09-15T01:15:27.337Z,1.33
2022-09-15T01:18:00.655Z,3.83
2022-09-15T01:20:37.514Z,4.53
2022-09-15T01:23:16.860Z,4.47
2022-09-15T01:25:43.935Z,1.50
2022-09-15T01:28:21.991Z,0.95
2022-09-15T01:30:56.337Z,1.95
2022-09-15T01:33:37.541Z,1.20
2022-09-15T01:36:17.207Z,2.05
2022-09-15T01:39:04.640Z,1.48
2022-09-15T01:41:35.382Z,1.52
2022-09-15T01:44:09.883Z,1.70
2022-09-15T01:46:40.396Z,1.95
2022-09-15T01:49:09.973Z,2.47
2022-09-15T01:51:37.669Z,1.98
2022-09-15T01:54:05.884Z,2.85
2022-09-15T01:56:33.239Z,5.70
2022-09-15T01:59:00.485Z,7.57
2022-09-15T02:01:43.796Z,7.32
2022-09-15T02:04:21.642Z,11.93
2022-09-15T02:07:00.914Z,11.15
2022-09-15T02:09:39.075Z,7.82
2022-09-15T02:12:12.418Z,14.93
2022-09-15T02:14:56.029Z,11.43
2022-09-15T02:17:24.301Z,11.88
2022-09-15T02:19:53.518Z,12.00
2022-09-15T02:22:27.754Z,11.68
2022-09-15T02:25:03.261Z,14.15
2022-09-15T02:27:31.680Z,12.60
2022-09-15T02:30:03.203Z,8.80
2022-09-15T02:32:30.907Z,8.77
2022-09-15T02:34:59.129Z,7.78
2022-09-15T02:37:27.047Z,9.45
2022-09-15T02:40:00.903Z,8.88
2022-09-15T02:42:29.452Z,8.00
2022-09-15T02:44:56.778Z,14.40
2022-09-15T02:47:24.270Z,15.55
2022-09-15T02:49:51.385Z,9.60
2022-09-15T02:52:18.484Z,9.98
2022-09-15T02:54:45.777Z,12.35
2022-09-15T02:57:14.264Z,10.68
2022-09-15T02:59:59.912Z,13.27
2022-09-15T03:02:27.387Z,11.13
2022-09-15T03:04:54.473Z,12.27
2022-09-15T03:07:21.685Z,15.13
2022-09-15T03:09:48.853Z,13.15
2022-09-15T03:12:16.053Z,14.73
2022-09-15T03:14:43.384Z,17.60
2022-09-15T03:17:10.582Z,18.20
2022-09-15T03:19:37.831Z,14.32
2022-09-15T03:22:05.158Z,17.75
2022-09-15T03:24:32.197Z,15.63
2022-09-15T03:26:59.231Z,14.98
2022-09-15T03:29:26.331Z,14.43
2022-09-15T03:31:53.933Z,16.45
2022-09-15T03:34:21.041Z,15.45
2022-09-15T03:36:50.391Z,13.02
2022-09-15T03:39:17.442Z,20.65
2022-09-15T03:41:44.487Z,17.02
2022-09-15T03:44:11.663Z,15.52
2022-09-15T03:46:39.085Z,18.00
2022-09-15T03:49:06.189Z,19.95
2022-09-15T03:51:33.326Z,19.77
2022-09-15T03:54:00.360Z,18.50
2022-09-15T03:56:31.249Z,21.02
2022-09-15T03:58:59.128Z,25.52
2022-09-15T04:01:29.205Z,28.92
2022-09-15T04:03:57.977Z,20.98
2022-09-15T04:06:25.762Z,24.05
2022-09-15T04:08:53.637Z,22.92
2022-09-15T04:11:21.358Z,33.63
2022-09-15T04:13:48.649Z,28.83
2022-09-15T04:16:17.405Z,29.63
2022-09-15T04:18:45.064Z,33.25
2022-09-15T04:21:13.580Z,42.53
2022-09-15T04:23:41.552Z,32.72
2022-09-15T04:26:12.242Z,35.80
2022-09-15T04:28:39.760Z,44.80
2022-09-15T04:31:08.378Z,41.95
2022-09-15T04:33:35.939Z,41.05
2022-09-15T04:36:04.041Z,52.08
2022-09-15T04:38:31.726Z,27.25
2022-09-15T04:40:59.350Z,35.20
2022-09-15T04:43:27.270Z,30.63
2022-09-15T04:45:54.520Z,31.50
2022-09-15T04:48:22.214Z,26.88
2022-09-15T04:50:49.447Z,21.40
2022-09-15T04:53:17.006Z,14.82
2022-09-15T04:55:44.747Z,16.63
2022-09-15T04:58:11.885Z,11.73
2022-09-15T05:00:43.079Z,14.98
2022-09-15T05:03:11.457Z,13.32
2022-09-15T05:05:39.190Z,21.20
2022-09-15T05:08:06.302Z,14.45
2022-09-15T05:10:33.435Z,17.55
2022-09-15T05:13:00.912Z,26.73
2022-09-15T05:15:28.093Z,21.17
2022-09-15T05:17:55.266Z,18.80
2022-09-15T05:20:22.679Z,31.52
2022-09-15T05:22:49.732Z,20.77
2022-09-15T05:25:16.901Z,28.98
2022-09-15T05:27:43.987Z,16.50
2022-09-15T05:30:35.869Z,15.77
2022-09-15T05:32:58.431Z,21.33
2022-09-15T05:35:25.570Z,18.23
2022-09-15T05:37:52.593Z,19.17
2022-09-15T05:40:21.810Z,19.08
2022-09-15T05:42:48.973Z,16.65
2022-09-15T05:45:16.131Z,24.95
2022-09-15T05:47:43.338Z,29.90
2022-09-15T05:50:11.289Z,49.17
2022-09-15T05:52:38.564Z,34.92
2022-09-15T05:55:05.861Z,46.03
2022-09-15T05:57:33.258Z,26.90
2022-09-15T06:00:00.385Z,20.13
2022-09-15T06:02:27.522Z,21.05
2022-09-15T06:04:54.609Z,22.65
2022-09-15T06:07:21.729Z,18.83
2022-09-15T06:09:48.781Z,13.77
2022-09-15T06:12:17.987Z,18.13
2022-09-15T06:14:45.937Z,19.90
2022-09-15T06:17:13.094Z,16.58
2022-09-15T06:19:40.330Z,20.40
2022-09-15T06:22:07.428Z,19.88
2022-09-15T06:24:34.518Z,16.02
2022-09-15T06:27:01.565Z,27.27
2022-09-15T06:29:29.152Z,15.82
2022-09-15T06:31:57.193Z,14.55
2022-09-15T06:34:24.293Z,16.05
2022-09-15T06:36:51.419Z,14.55
2022-09-15T06:39:18.504Z,14.20
2022-09-15T06:42:01.830Z,11.77
2022-09-15T06:44:29.637Z,12.60
2022-09-15T06:46:56.698Z,11.32
2022-09-15T06:49:23.856Z,15.63
2022-09-15T06:51:51.499Z,12.02
2022-09-15T06:54:18.643Z,17.95
2022-09-15T06:56:45.743Z,13.75
2022-09-15T06:59:13.080Z,17.17
2022-09-15T07:01:40.167Z,23.92
2022-09-15T07:04:09.896Z,13.75
2022-09-15T07:06:37.908Z,18.95
2022-09-15T07:09:08.318Z,14.05
2022-09-15T07:11:35.734Z,10.80
2022-09-15T07:14:02.821Z,14.95
2022-09-15T07:16:30.455Z,19.30
2022-09-15T07:19:00.456Z,13.93
2022-09-15T07:21:27.683Z,10.25
2022-09-15T07:23:57.032Z,11.65
2022-09-15T07:26:25.391Z,11.07
2022-09-15T07:28:54.647Z,16.75
2022-09-15T07:31:23.765Z,8.85
2022-09-15T07:33:51.145Z,12.48
2022-09-15T07:36:18.615Z,12.45
2022-09-15T07:38:47.867Z,13.18
2022-09-15T07:41:25.593Z,12.48
2022-09-15T07:43:53.915Z,7.43
2022-09-15T07:46:21.880Z,9.23
2022-09-15T07:48:49.993Z,13.05
2022-09-15T07:51:17.534Z,16.23
2022-09-15T07:53:45.689Z,7.50
2022-09-15T07:56:13.047Z,15.77
2022-09-15T07:58:40.191Z,15.95
2022-09-15T08:01:09.211Z,12.85
2022-09-15T08:03:36.358Z,12.40
2022-09-15T08:06:04.219Z,11.57
2022-09-15T08:08:31.697Z,11.55
2022-09-15T08:10:58.795Z,15.30
2022-09-15T08:13:26.131Z,13.13
2022-09-15T08:15:53.404Z,8.98
2022-09-15T08:18:20.973Z,9.55
2022-09-15T08:20:48.189Z,11.02
2022-09-15T08:23:15.769Z,14.15
2022-09-15T08:25:44.531Z,16.50
2022-09-15T08:28:11.978Z,11.60
2022-09-15T08:30:39.168Z,12.85
2022-09-15T08:33:06.308Z,12.00
2022-09-15T08:35:34.384Z,12.85
2022-09-15T08:38:04.522Z,12.73
2022-09-15T08:40:34.964Z,11.55
2022-09-15T08:43:07.049Z,10.10
2022-09-15T08:45:45.019Z,11.70
2022-09-15T08:48:15.768Z,9.00
2022-09-15T08:50:45.531Z,13.23
2022-09-15T08:53:14.708Z,9.93
2022-09-15T08:55:47.780Z,9.55
2022-09-15T08:58:17.385Z,6.75
2022-09-15T09:00:46.045Z,8.68
2022-09-15T09:03:28.559Z,13.35
2022-09-15T09:06:14.312Z,8.13
2022-09-15T09:08:41.438Z,10.02
2022-09-15T09:11:19.702Z,11.00
2022-09-15T09:13:49.829Z,7.47
2022-09-15T09:16:26.612Z,11.32
2022-09-15T09:18:56.860Z,10.75
2022-09-15T09:21:32.235Z,8.32
2022-09-15T09:24:06.901Z,9.52
2022-09-15T09:26:35.793Z,13.45
2022-09-15T09:29:08.230Z,10.35
2022-09-15T09:31:36.752Z,10.50
2022-09-15T09:34:23.663Z,11.05
2022-09-15T09:36:55.274Z,6.82
2022-09-15T09:39:22.857Z,9.95
2022-09-15T09:41:51.382Z,7.10
2022-09-15T09:44:19.624Z,7.10
2022-09-15T09:46:47.469Z,6.93
2022-09-15T09:49:23.106Z,10.65
2022-09-15T09:51:52.345Z,7.90
2022-09-15T09:54:21.353Z,6.72
2022-09-15T09:56:49.575Z,7.78
2022-09-15T09:59:36.959Z,13.00
2022-09-15T10:02:13.511Z,8.50
2022-09-15T10:04:44.921Z,11.18
2022-09-15T10:07:12.548Z,5.28
2022-09-15T10:09:39.838Z,3.97
2022-09-15T10:12:07.525Z,5.70
2022-09-15T10:14:45.488Z,4.95
2022-09-15T10:17:20.279Z,5.40
2022-09-15T10:19:53.218Z,3.47
2022-09-15T10:22:35.239Z,4.82
2022-09-15T10:25:03.430Z,4.05
2022-09-15T10:27:34.725Z,5.13
2022-09-15T10:30:13.936Z,3.40
2022-09-15T10:32:42.331Z,3.58
2022-09-15T10:35:12.488Z,8.35
2022-09-15T10:37:58.643Z,7.47
2022-09-15T10:40:33.045Z,8.15
2022-09-15T10:43:19.077Z,5.65
2022-09-15T10:45:49.056Z,3.63
2022-09-15T10:48:37.092Z,2.67
2022-09-15T10:51:10.389Z,2.70
2022-09-15T10:53:37.517Z,3.35
2022-09-15T10:56:18.493Z,9.52
2022-09-15T10:59:00.590Z,3.83
2022-09-15T11:01:30.692Z,3.00
2022-09-15T11:04:16.051Z,3.97
2022-09-15T11:06:49.898Z,2.88
2022-09-15T11:09:23.224Z,3.35
2022-09-15T11:11:57.840Z,6.65
2022-09-15T11:14:51.795Z,2.78
2022-09-15T11:17:28.245Z,1.48
2022-09-15T11:20:05.490Z,1.33
2022-09-15T11:22:35.339Z,6.20
2022-09-15T11:25:04.552Z,3.45
2022-09-15T11:27:32.308Z,2.45
2022-09-15T11:30:09.169Z,3.35
2022-09-15T11:32:58.047Z,0.95
2022-09-15T11:35:35.171Z,2.78
2022-09-15T11:38:11.057Z,4.03
2022-09-15T11:40:45.253Z,3.47
2022-09-15T11:43:31.172Z,1.95
2022-09-15T11:45:59.685Z,5.78
2022-09-15T11:48:38.486Z,1.48
2022-09-15T11:51:09.253Z,1.20
2022-09-15T11:53:40.252Z,3.80
2022-09-15T11:56:16.490Z,3.00
2022-09-15T11:58:44.159Z,6.00
2022-09-15T12:01:11.345Z,8.60
2022-09-15T12:03:48.335Z,6.25
2022-09-15T12:06:31.164Z,6.80
2022-09-15T12:09:08.175Z,2.97
2022-09-15T12:11:36.990Z,3.03
2022-09-15T12:14:05.260Z,8.57
2022-09-15T12:16:34.075Z,6.00
2022-09-15T12:19:07.626Z,2.85
2022-09-15T12:24:08.343Z,17.10
2022-09-15T12:26:35.751Z,5.65
2022-09-15T12:29:22.924Z,19.83
2022-09-15T12:32:08.099Z,5.47
2022-09-15T12:34:36.865Z,8.55
2022-09-15T12:37:16.349Z,1.85
2022-09-15T12:39:44.179Z,2.22
2022-09-15T12:42:11.238Z,1.35
2022-09-15T12:44:59.313Z,2.28
2022-09-15T12:47:28.678Z,1.30
2022-09-15T12:49:58.574Z,1.38
2022-09-15T12:52:26.381Z,2.65
2022-09-15T12:54:55.539Z,1.95
2022-09-15T12:57:25.403Z,2.90
2022-09-15T13:00:12.657Z,2.72
2022-09-15T13:02:44.551Z,4.85
2022-09-15T13:05:13.115Z,3.42
2022-09-15T13:08:06.530Z,2.55
2022-09-15T13:10:35.448Z,1.80
2022-09-15T13:13:11.007Z,1.85
2022-09-15T13:15:42.142Z,2.05
2022-09-15T13:18:09.291Z,7.57
2022-09-15T13:20:38.902Z,4.18
2022-09-15T13:23:08.544Z,13.45
2022-09-15T13:25:36.725Z,13.82
2022-09-15T13:28:04.269Z,4.15
2022-09-15T13:30:43.225Z,1.40
2022-09-15T13:35:02.324Z,3.05
2022-09-15T13:39:37.017Z,2.17
2022-09-15T13:42:12.220Z,0.90
2022-09-15T13:44:49.606Z,1.48
2022-09-15T13:47:35.662Z,1.00
2022-09-15T13:50:15.211Z,3.90
2022-09-15T13:53:01.093Z,5.80
2022-09-15T13:55:29.407Z,3.00
2022-09-15T14:00:55.281Z,2.30
2022-09-15T14:03:25.884Z,11.73
2022-09-15T14:05:53.974Z,7.50
2022-09-15T14:08:23.149Z,3.70
2022-09-15T14:10:53.011Z,1.33
2022-09-15T14:13:21.060Z,10.43
2022-09-15T14:15:58.438Z,4.22
2022-09-15T14:18:25.660Z,4.57
2022-09-15T14:21:03.181Z,3.72
2022-09-15T14:23:30.818Z,3.72
2022-09-15T14:26:00.371Z,1.55
2022-09-15T14:28:32.113Z,14.05
2022-09-15T14:31:00.155Z,1.90
2022-09-15T14:33:35.532Z,18.42
2022-09-15T14:36:13.003Z,4.10
2022-09-15T14:38:40.120Z,2.80
2022-09-15T14:41:07.458Z,3.10
2022-09-15T14:43:35.692Z,2.58
2022-09-15T14:46:13.077Z,2.22
2022-09-15T14:48:40.371Z,4.10
2022-09-15T14:51:19.475Z,3.67
2022-09-15T14:53:47.141Z,8.45
2022-09-15T14:56:22.641Z,1.08
2022-09-15T14:59:13.016Z,2.83
2022-09-15T15:01:53.022Z,2.58
2022-09-15T15:04:25.592Z,2.53
2022-09-15T15:06:56.312Z,1.52
2022-09-15T15:09:26.773Z,2.05
2022-09-15T15:11:57.225Z,2.30
2022-09-15T15:14:24.652Z,1.73
2022-09-15T15:17:03.037Z,2.50
2022-09-15T15:19:51.739Z,4.13
2022-09-15T15:22:21.410Z,1.75
2022-09-15T15:24:49.972Z,2.83
2022-09-15T15:27:26.278Z,0.85
2022-09-15T15:29:53.428Z,3.85
2022-09-15T15:32:21.753Z,2.58
2022-09-15T15:34:53.175Z,2.05
2022-09-15T15:37:33.278Z,3.75
2022-09-15T15:40:06.348Z,1.65
2022-09-15T15:42:33.689Z,1.63
2022-09-15T15:45:13.003Z,2.67
2022-09-15T15:47:40.065Z,2.75
2022-09-15T15:50:15.148Z,2.63
2022-09-15T15:52:43.965Z,3.60
2022-09-15T15:55:14.194Z,6.63
2022-09-15T15:57:41.706Z,25.13
2022-09-15T16:00:21.378Z,2.97
2022-09-15T16:02:49.317Z,4.80
2022-09-15T16:05:16.428Z,8.90
2022-09-15T16:07:44.388Z,5.05
2022-09-15T16:10:16.142Z,5.55
2022-09-15T16:12:43.212Z,4.43
2022-09-15T16:15:14.442Z,2.53
2022-09-15T16:17:45.931Z,10.48
2022-09-15T16:20:16.050Z,14.88
2022-09-15T16:22:44.931Z,22.23
2022-09-15T16:25:14.574Z,5.20
2022-09-15T16:27:41.684Z,3.78
2022-09-15T16:30:12.032Z,3.90
2022-09-15T16:32:40.542Z,12.50
2022-09-15T16:35:30.110Z,13.70
2022-09-15T16:37:57.249Z,7.53
2022-09-15T16:40:24.972Z,3.40
2022-09-15T16:42:52.083Z,4.10
2022-09-15T16:45:40.848Z,1.65
2022-09-15T16:48:08.530Z,2.92
2022-09-15T16:50:36.586Z,3.53
2022-09-15T16:53:05.451Z,4.45
2022-09-15T16:55:41.735Z,6.03
2022-09-15T16:58:08.940Z,2.10
2022-09-15T17:00:37.615Z,7.40
2022-09-15T17:03:05.532Z,2.33
2022-09-15T17:05:39.804Z,7.28
2022-09-15T17:08:07.919Z,2.30
2022-09-15T17:10:35.425Z,7.03
2022-09-15T17:13:03.039Z,8.80
2022-09-15T17:15:31.753Z,1.50
2022-09-15T17:17:58.894Z,2.97
2022-09-15T17:20:26.435Z,7.55
2022-09-15T17:22:54.028Z,6.68
2022-09-15T17:25:29.264Z,39.28
2022-09-15T17:27:57.015Z,34.55
2022-09-15T17:30:25.134Z,8.98
2022-09-15T17:32:52.366Z,6.43
2022-09-15T17:35:24.318Z,5.13
2022-09-15T17:37:51.915Z,5.18
2022-09-15T17:40:20.514Z,11.15
2022-09-15T17:42:48.304Z,5.90
2022-09-15T17:45:25.822Z,3.35
2022-09-15T17:47:53.496Z,5.97
2022-09-15T17:50:21.662Z,6.22
2022-09-15T17:52:49.185Z,8.32
2022-09-15T17:55:24.468Z,3.92
2022-09-15T17:57:51.677Z,5.13
2022-09-15T18:00:19.161Z,4.50
2022-09-15T18:02:49.177Z,13.18
2022-09-15T18:05:30.423Z,6.25
2022-09-15T18:07:58.504Z,4.10
2022-09-15T18:10:26.674Z,7.65
2022-09-15T18:12:55.623Z,8.73
2022-09-15T18:15:30.683Z,8.05
2022-09-15T18:17:59.316Z,6.97
2022-09-15T18:20:30.502Z,9.25
2022-09-15T18:22:57.570Z,6.57
2022-09-15T18:25:28.429Z,12.95
2022-09-15T18:27:55.849Z,7.43
2022-09-15T18:30:23.862Z,8.13
2022-09-15T18:32:51.381Z,3.85
2022-09-15T18:35:20.055Z,10.30
2022-09-15T18:37:48.525Z,9.05
2022-09-15T18:40:17.171Z,3.58
2022-09-15T18:42:44.763Z,6.18
2022-09-15T18:45:13.628Z,5.38
2022-09-15T18:47:42.528Z,8.45
2022-09-15T18:50:10.400Z,8.30
2022-09-15T18:52:38.590Z,6.75
2022-09-15T18:55:07.540Z,5.85
2022-09-15T18:57:35.362Z,6.88
2022-09-15T19:00:03.706Z,10.60
2022-09-15T19:02:31.604Z,5.25
2022-09-15T19:04:58.816Z,4.90
2022-09-15T19:07:28.407Z,6.75
2022-09-15T19:09:56.809Z,7.43
2022-09-15T19:12:24.122Z,6.97
2022-09-15T19:14:51.353Z,6.55
2022-09-15T19:17:18.564Z,6.10
2022-09-15T19:19:46.447Z,3.25
2022-09-15T19:22:13.661Z,5.57
2022-09-15T19:24:40.737Z,4.43
2022-09-15T19:27:08.404Z,7.35
2022-09-15T19:29:36.772Z,5.30
2022-09-15T19:32:08.518Z,3.60
2022-09-15T19:34:36.125Z,6.18
2022-09-15T19:37:05.813Z,8.55
2022-09-15T19:39:37.230Z,7.43
2022-09-15T19:42:04.430Z,3.53
2022-09-15T19:44:31.793Z,4.85
2022-09-15T19:46:59.063Z,3.83
2022-09-15T19:49:26.562Z,8.25
2022-09-15T19:51:55.522Z,5.65
2022-09-15T19:54:23.463Z,4.25
2022-09-15T19:56:51.404Z,4.50
2022-09-15T19:59:18.614Z,5.95
2022-09-15T20:01:45.928Z,4.05
2022-09-15T20:04:13.576Z,8.40
2022-09-15T20:06:41.078Z,3.30
2022-09-15T20:09:08.185Z,4.13
2022-09-15T20:11:35.890Z,5.30
2022-09-15T20:14:03.612Z,1.98
2022-09-15T20:16:30.900Z,3.40
2022-09-15T20:18:58.253Z,6.55
2022-09-15T20:21:45.984Z,1.98
2022-09-15T20:24:14.195Z,7.72
2022-09-15T20:26:41.392Z,5.80
2022-09-15T20:29:08.720Z,8.50
2022-09-15T20:31:35.784Z,5.00
2022-09-15T20:34:02.937Z,9.45
2022-09-15T20:36:33.483Z,7.22
2022-09-15T20:39:01.497Z,3.28
2022-09-15T20:41:28.946Z,2.83
2022-09-15T20:43:56.464Z,4.75
2022-09-15T20:46:25.145Z,2.63
2022-09-15T20:48:53.152Z,7.20
2022-09-15T20:51:24.503Z,2.05
2022-09-15T20:53:53.048Z,3.30
2022-09-15T20:56:24.934Z,4.07
2022-09-15T20:58:52.896Z,3.38
2022-09-15T21:01:26.967Z,3.17
2022-09-15T21:03:55.479Z,1.55
2022-09-15T21:06:24.041Z,3.10
2022-09-15T21:08:51.934Z,6.38
2022-09-15T21:11:20.265Z,6.78
2022-09-15T21:13:48.603Z,2.80
2022-09-15T21:16:16.879Z,3.67
2022-09-15T21:18:44.633Z,3.17
2022-09-15T21:21:11.923Z,1.90
2022-09-15T21:23:46.097Z,3.15
2022-09-15T21:26:17.515Z,1.38
2022-09-15T21:28:44.960Z,2.13
2022-09-15T21:31:15.069Z,3.28
2022-09-15T21:33:42.530Z,1.88
2022-09-15T21:36:11.481Z,4.53
2022-09-15T21:38:40.437Z,2.33
2022-09-15T21:41:09.251Z,3.10
2022-09-15T21:43:37.928Z,1.83
2022-09-15T21:46:06.277Z,4.63
2022-09-15T21:48:34.901Z,5.22
2022-09-15T21:51:02.857Z,1.85
2022-09-15T21:53:30.346Z,5.75
2022-09-15T21:56:00.876Z,5.53
2022-09-15T21:58:39.083Z,2.90
2022-09-15T22:01:20.024Z,4.75
2022-09-15T22:03:57.807Z,5.18
2022-09-15T22:06:27.733Z,3.33
2022-09-15T22:08:55.451Z,6.28
2022-09-15T22:11:23.272Z,5.32
2022-09-15T22:13:50.537Z,7.57
2022-09-15T22:16:19.065Z,5.28
2022-09-15T22:18:46.635Z,3.75
2022-09-15T22:21:13.658Z,5.95
2022-09-15T22:23:40.745Z,5.00
2022-09-15T22:26:10.385Z,7.03
2022-09-15T22:28:37.809Z,3.80
2022-09-15T22:31:06.858Z,3.45
2022-09-15T22:33:34.289Z,3.70
2022-09-15T22:36:01.708Z,2.05
2022-09-15T22:38:30.046Z,4.07
2022-09-15T22:40:57.423Z,5.10
2022-09-15T22:43:24.567Z,3.60
2022-09-15T22:45:53.775Z,5.22
2022-09-15T22:48:20.899Z,5.05
2022-09-15T22:50:47.942Z,2.97
2022-09-15T22:53:15.240Z,3.67
2022-09-15T22:55:42.269Z,4.43
2022-09-15T22:58:09.458Z,4.57
2022-09-15T23:00:38.378Z,2.33
2022-09-15T23:03:06.145Z,12.35
2022-09-15T23:05:34.141Z,4.57
2022-09-15T23:08:01.390Z,5.35
2022-09-15T23:10:28.656Z,6.38
2022-09-15T23:12:55.945Z,2.75
2022-09-15T23:15:23.100Z,8.20
2022-09-15T23:17:50.718Z,7.63
2022-09-15T23:20:17.984Z,6.50
2022-09-15T23:22:45.033Z,5.50
2022-09-15T23:25:12.142Z,4.75
2022-09-15T23:27:39.270Z,4.38
2022-09-15T23:30:06.591Z,3.30
2022-09-15T23:32:33.711Z,5.32
2022-09-15T23:35:00.870Z,3.75
2022-09-15T23:37:27.984Z,10.82
2022-09-15T23:39:55.188Z,3.40
2022-09-15T23:42:22.311Z,5.18
2022-09-15T23:44:49.390Z,5.13
2022-09-15T23:47:16.728Z,4.32
2022-09-15T23:49:43.821Z,4.32
2022-09-15T23:52:10.901Z,4.82
2022-09-15T23:54:38.048Z,4.80
2022-09-15T23:57:05.124Z,5.68
2022-09-15T23:59:32.198Z,5.60
